Princeton, California
Current Conditions -  °F | °C
As of 4:53 AM on Thursday 27 Nov 2014 (Local Time) from KOVE Reporting Station
Clear Clear  
Wind Chill: 49°   Ceiling: Unl
Heat Index: 49°   Visibility: 10mi
Dew Point: 46°   Wind: 3mph
Humidity: 90%   Direction: 50°NE
Pressure: 30.2"   Gusts: NA
Location:  39.4°N, 122.01°W
Report Text: KOVE 271253Z AUTO 05003KT 10SM CLR 09/08 A3020 RMK AO2 SLP229 T00940078
Loading
Personal Weather Stations






























Interactive Weather Map New forecast layout! Learn more

10-Day Weather Forecast

Advertisements
Track Severe Weather on mobile